sensor_id;sensor_type;location;lat;lon;timestamp;pressure;altitude;pressure_sealevel;temperature;humidity
8697;BME280;4385;48.848;8.924;2023-12-28T00:01:06;97435.78;;;16.99;100.00
8697;BME280;4385;48.848;8.924;2023-12-28T00:03:31;97441.75;;;16.98;100.00
8697;BME280;4385;48.848;8.924;2023-12-28T00:05:56;97444.28;;;16.98;100.00
8697;BME280;4385;48.848;8.924;2023-12-28T00:08:21;97439.22;;;16.97;100.00
8697;BME280;4385;48.848;8.924;2023-12-28T00:10:47;97440.09;;;16.95;100.00
8697;BME280;4385;48.848;8.924;2023-12-28T00:13:12;97436.69;;;16.95;100.00
8697;BME280;4385;48.848;8.924;2023-12-28T00:15:37;97441.78;;;16.95;100.00
8697;BME280;4385;48.848;8.924;2023-12-28T00:18:03;97440.16;;;16.92;100.00
8697;BME280;4385;48.848;8.924;2023-12-28T00:20:28;97444.38;;;16.93;100.00
8697;BME280;4385;48.848;8.924;2023-12-28T00:22:53;97449.47;;;16.92;100.00
8697;BME280;4385;48.848;8.924;2023-12-28T00:25:19;97444.38;;;16.92;100.00
8697;BME280;4385;48.848;8.924;2023-12-28T00:27:44;97449.53;;;16.89;100.00
8697;BME280;4385;48.848;8.924;2023-12-28T00:30:11;97452.94;;;16.88;100.00
8697;BME280;4385;48.848;8.924;2023-12-28T00:32:36;97444.44;;;16.89;100.00
8697;BME280;4385;48.848;8.924;2023-12-28T00:35:01;97450.41;;;16.88;100.00
8697;BME280;4385;48.848;8.924;2023-12-28T00:37:27;97448.69;;;16.87;100.00
8697;BME280;4385;48.848;8.924;2023-12-28T00:39:52;97444.50;;;16.84;100.00
8697;BME280;4385;48.848;8.924;2023-12-28T00:42:18;97444.50;;;16.84;100.00
8697;BME280;4385;48.848;8.924;2023-12-28T00:44:44;97441.13;;;16.83;100.00
8697;BME280;4385;48.848;8.924;2023-12-28T00:47:09;97449.66;;;16.81;100.00
8697;BME280;4385;48.848;8.924;2023-12-28T00:49:36;97438.66;;;16.79;100.00
8697;BME280;4385;48.848;8.924;2023-12-28T00:52:01;97435.25;;;16.80;100.00
8697;BME280;4385;48.848;8.924;2023-12-28T00:54:26;97442.03;;;16.79;100.00
8697;BME280;4385;48.848;8.924;2023-12-28T00:56:51;97444.56;;;16.81;100.00
8697;BME280;4385;48.848;8.924;2023-12-28T00:59:17;97441.16;;;16.80;100.00
8697;BME280;4385;48.848;8.924;2023-12-28T01:01:42;97443.75;;;16.79;100.00
8697;BME280;4385;48.848;8.924;2023-12-28T01:04:07;97449.69;;;16.79;100.00
8697;BME280;4385;48.848;8.924;2023-12-28T01:06:32;97447.13;;;16.79;100.00
8697;BME280;4385;48.848;8.924;2023-12-28T01:08:58;97454.75;;;16.79;100.00
8697;BME280;4385;48.848;8.924;2023-12-28T01:11:23;97458.97;;;16.80;100.00
8697;BME280;4385;48.848;8.924;2023-12-28T01:13:48;97457.31;;;16.79;100.00
8697;BME280;4385;48.848;8.924;2023-12-28T01:16:14;97455.63;;;16.80;100.00
8697;BME280;4385;48.848;8.924;2023-12-28T01:18:39;97456.44;;;16.80;100.00
8697;BME280;4385;48.848;8.924;2023-12-28T01:21:05;97458.97;;;16.80;100.00
8697;BME280;4385;48.848;8.924;2023-12-28T01:23:31;97456.47;;;16.77;100.00
8697;BME280;4385;48.848;8.924;2023-12-28T01:25:56;97456.47;;;16.77;100.00
8697;BME280;4385;48.848;8.924;2023-12-28T01:28:22;97467.53;;;16.76;100.00
8697;BME280;4385;48.848;8.924;2023-12-28T01:30:47;97464.16;;;16.74;100.00
8697;BME280;4385;48.848;8.924;2023-12-28T01:33:12;97467.56;;;16.75;100.00
8697;BME280;4385;48.848;8.924;2023-12-28T01:35:37;97472.69;;;16.73;100.00
8697;BME280;4385;48.848;8.924;2023-12-28T01:38:04;97476.06;;;16.74;100.00
8697;BME280;4385;48.848;8.924;2023-12-28T01:40:30;97476.91;;;16.73;100.00
8697;BME280;4385;48.848;8.924;2023-12-28T01:42:55;97472.69;;;16.72;100.00
8697;BME280;4385;48.848;8.924;2023-12-28T01:45:20;97475.25;;;16.70;100.00
8697;BME280;4385;48.848;8.924;2023-12-28T01:47:47;97484.63;;;16.68;100.00
8697;BME280;4385;48.848;8.924;2023-12-28T01:50:13;97479.56;;;16.66;100.00
8697;BME280;4385;48.848;8.924;2023-12-28T01:52:39;97490.63;;;16.64;100.00
8697;BME280;4385;48.848;8.924;2023-12-28T01:55:05;97488.94;;;16.63;100.00
8697;BME280;4385;48.848;8.924;2023-12-28T01:57:30;97490.66;;;16.62;100.00
8697;BME280;4385;48.848;8.924;2023-12-28T01:59:56;97494.03;;;16.63;100.00
8697;BME280;4385;48.848;8.924;2023-12-28T02:02:24;97502.50;;;16.62;100.00
8697;BME280;4385;48.848;8.924;2023-12-28T02:04:49;97499.97;;;16.62;100.00
8697;BME280;4385;48.848;8.924;2023-12-28T02:07:15;97501.72;;;16.60;100.00
8697;BME280;4385;48.848;8.924;2023-12-28T02:09:41;97494.91;;;16.60;100.00
8697;BME280;4385;48.848;8.924;2023-12-28T02:12:06;97510.16;;;16.60;100.00
8697;BME280;4385;48.848;8.924;2023-12-28T02:14:32;97507.66;;;16.58;100.00
8697;BME280;4385;48.848;8.924;2023-12-28T02:17:28;97503.44;;;16.57;100.00
8697;BME280;4385;48.848;8.924;2023-12-28T02:19:52;97497.50;;;16.55;100.00
8697;BME280;4385;48.848;8.924;2023-12-28T02:22:18;97497.53;;;16.54;100.00
8697;BME280;4385;48.848;8.924;2023-12-28T02:27:27;97500.97;;;16.53;100.00
8697;BME280;4385;48.848;8.924;2023-12-28T02:29:53;97506.91;;;16.53;100.00
8697;BME280;4385;48.848;8.924;2023-12-28T02:32:23;97506.03;;;16.54;100.00
8697;BME280;4385;48.848;8.924;2023-12-28T02:34:52;97497.50;;;16.55;100.00
8697;BME280;4385;48.848;8.924;2023-12-28T02:37:22;97495.84;;;16.54;100.00
8697;BME280;4385;48.848;8.924;2023-12-28T02:39:51;97485.66;;;16.54;100.00
8697;BME280;4385;48.848;8.924;2023-12-28T02:42:17;97491.59;;;16.55;100.00
8697;BME280;4385;48.848;8.924;2023-12-28T02:44:42;97487.38;;;16.54;100.00
8697;BME280;4385;48.848;8.924;2023-12-28T02:47:08;97491.63;;;16.53;100.00
8697;BME280;4385;48.848;8.924;2023-12-28T02:49:33;97489.09;;;16.53;100.00
8697;BME280;4385;48.848;8.924;2023-12-28T02:51:58;97484.00;;;16.53;100.00
8697;BME280;4385;48.848;8.924;2023-12-28T02:54:23;97489.09;;;16.53;100.00
8697;BME280;4385;48.848;8.924;2023-12-28T02:56:49;97487.38;;;16.54;100.00
8697;BME280;4385;48.848;8.924;2023-12-28T02:59:15;97490.75;;;16.54;100.00
8697;BME280;4385;48.848;8.924;2023-12-28T03:01:40;97489.88;;;16.55;100.00
8697;BME280;4385;48.848;8.924;2023-12-28T03:04:05;97485.66;;;16.54;100.00
8697;BME280;4385;48.848;8.924;2023-12-28T03:06:30;97489.09;;;16.53;100.00
8697;BME280;4385;48.848;8.924;2023-12-28T03:08:56;97491.66;;;16.52;100.00
8697;BME280;4385;48.848;8.924;2023-12-28T03:11:21;97494.19;;;16.52;100.00
8697;BME280;4385;48.848;8.924;2023-12-28T03:13:46;97492.47;;;16.52;100.00
8697;BME280;4385;48.848;8.924;2023-12-28T03:16:13;97489.13;;;16.50;100.00
8697;BME280;4385;48.848;8.924;2023-12-28T03:18:38;97482.28;;;16.52;100.00
8697;BME280;4385;48.848;8.924;2023-12-28T03:21:04;97481.47;;;16.53;100.00
8697;BME280;4385;48.848;8.924;2023-12-28T03:23:29;97484.00;;;16.53;100.00
8697;BME280;4385;48.848;8.924;2023-12-28T03:25:55;97480.63;;;16.51;100.00
8697;BME280;4385;48.848;8.924;2023-12-28T03:28:20;97480.63;;;16.51;100.00
8697;BME280;4385;48.848;8.924;2023-12-28T03:30:46;97474.66;;;16.52;100.00
8697;BME280;4385;48.848;8.924;2023-12-28T03:33:12;97474.66;;;16.52;100.00
8697;BME280;4385;48.848;8.924;2023-12-28T03:35:37;97469.56;;;16.52;100.00
8697;BME280;4385;48.848;8.924;2023-12-28T03:38:02;97466.22;;;16.52;100.00
8697;BME280;4385;48.848;8.924;2023-12-28T03:40:27;97461.94;;;16.52;100.00
8697;BME280;4385;48.848;8.924;2023-12-28T03:42:53;97461.09;;;16.53;100.00
8697;BME280;4385;48.848;8.924;2023-12-28T03:45:18;97466.22;;;16.52;100.00
8697;BME280;4385;48.848;8.924;2023-12-28T03:47:45;97472.13;;;16.52;100.00
8697;BME280;4385;48.848;8.924;2023-12-28T03:50:10;97462.78;;;16.53;100.00
8697;BME280;4385;48.848;8.924;2023-12-28T03:52:35;97460.25;;;16.53;100.00
8697;BME280;4385;48.848;8.924;2023-12-28T03:55:00;97458.56;;;16.53;100.00
8697;BME280;4385;48.848;8.924;2023-12-28T03:57:26;97462.81;;;16.51;100.00
8697;BME280;4385;48.848;8.924;2023-12-28T03:59:51;97459.41;;;16.52;100.00
8697;BME280;4385;48.848;8.924;2023-12-28T04:02:18;97462.81;;;16.51;100.00
8697;BME280;4385;48.848;8.924;2023-12-28T04:04:44;97468.78;;;16.50;100.00
8697;BME280;4385;48.848;8.924;2023-12-28T04:07:09;97473.00;;;16.51;100.00
8697;BME280;4385;48.848;8.924;2023-12-28T04:09:35;97475.53;;;16.51;100.00
8697;BME280;4385;48.848;8.924;2023-12-28T04:12:00;97473.88;;;16.50;100.00
8697;BME280;4385;48.848;8.924;2023-12-28T04:14:26;97469.59;;;16.51;100.00
8697;BME280;4385;48.848;8.924;2023-12-28T04:16:51;97472.16;;;16.49;100.00
8697;BME280;4385;48.848;8.924;2023-12-28T04:19:16;97473.03;;;16.48;100.00
8697;BME280;4385;48.848;8.924;2023-12-28T04:21:45;97472.16;;;16.49;100.00
8697;BME280;4385;48.848;8.924;2023-12-28T04:24:10;97473.03;;;16.48;100.00
8697;BME280;4385;48.848;8.924;2023-12-28T04:26:35;97472.16;;;16.49;100.00
8697;BME280;4385;48.848;8.924;2023-12-28T04:29:01;97467.94;;;16.50;100.00
8697;BME280;4385;48.848;8.924;2023-12-28T04:31:27;97473.88;;;16.50;100.00
8697;BME280;4385;48.848;8.924;2023-12-28T04:33:52;97471.31;;;16.52;100.00
8697;BME280;4385;48.848;8.924;2023-12-28T04:36:17;97465.38;;;16.51;100.00
8697;BME280;4385;48.848;8.924;2023-12-28T04:38:42;97472.97;;;16.53;100.00
8697;BME280;4385;48.848;8.924;2023-12-28T04:41:09;97468.72;;;16.53;100.00
8697;BME280;4385;48.848;8.924;2023-12-28T04:43:34;97474.66;;;16.52;100.00
8697;BME280;4385;48.848;8.924;2023-12-28T04:46:06;97463.66;;;16.53;100.00
8697;BME280;4385;48.848;8.924;2023-12-28T04:48:32;97461.94;;;16.54;100.00
8697;BME280;4385;48.848;8.924;2023-12-28T04:50:57;97473.81;;;16.53;100.00
8697;BME280;4385;48.848;8.924;2023-12-28T04:53:22;97483.97;;;16.55;100.00
8697;BME280;4385;48.848;8.924;2023-12-28T04:55:48;97484.75;;;16.58;100.00
8697;BME280;4385;48.848;8.924;2023-12-28T04:58:13;97489.00;;;16.60;100.00
8697;BME280;4385;48.848;8.924;2023-12-28T05:00:39;97483.03;;;16.61;100.00
8697;BME280;4385;48.848;8.924;2023-12-28T05:03:04;97499.97;;;16.62;100.00
8697;BME280;4385;48.848;8.924;2023-12-28T05:05:29;97488.13;;;16.61;100.00
8697;BME280;4385;48.848;8.924;2023-12-28T05:07:55;97486.44;;;16.60;100.00
8697;BME280;4385;48.848;8.924;2023-12-28T05:10:20;97485.63;;;16.57;100.00
8697;BME280;4385;48.848;8.924;2023-12-28T05:12:46;97473.81;;;16.55;100.00
8697;BME280;4385;48.848;8.924;2023-12-28T05:15:11;97482.25;;;16.55;100.00
8697;BME280;4385;48.848;8.924;2023-12-28T05:17:37;97478.81;;;16.60;100.00
8697;BME280;4385;48.848;8.924;2023-12-28T05:20:03;97486.44;;;16.61;100.00
8697;BME280;4385;48.848;8.924;2023-12-28T05:22:28;97477.06;;;16.62;100.00
8697;BME280;4385;48.848;8.924;2023-12-28T05:24:53;97497.44;;;16.62;100.00
8697;BME280;4385;48.848;8.924;2023-12-28T05:27:19;97498.31;;;16.61;100.00
8697;BME280;4385;48.848;8.924;2023-12-28T05:29:45;97502.50;;;16.62;100.00
8697;BME280;4385;48.848;8.924;2023-12-28T05:32:10;97496.59;;;16.63;100.00
8697;BME280;4385;48.848;8.924;2023-12-28T05:34:35;97499.13;;;16.63;100.00
8697;BME280;4385;48.848;8.924;2023-12-28T05:37:01;97514.38;;;16.64;100.00
8697;BME280;4385;48.848;8.924;2023-12-28T05:39:26;97518.56;;;16.67;100.00
8697;BME280;4385;48.848;8.924;2023-12-28T05:41:51;97522.78;;;16.68;100.00
8697;BME280;4385;48.848;8.924;2023-12-28T05:44:17;97524.47;;;16.70;100.00
8697;BME280;4385;48.848;8.924;2023-12-28T05:46:42;97510.88;;;16.72;100.00
8697;BME280;4385;48.848;8.924;2023-12-28T05:49:07;97503.22;;;16.72;100.00
8697;BME280;4385;48.848;8.924;2023-12-28T05:51:39;97496.44;;;16.72;100.00
8697;BME280;4385;48.848;8.924;2023-12-28T05:54:05;97498.09;;;16.75;100.00
8697;BME280;4385;48.848;8.924;2023-12-28T05:56:30;97499.72;;;16.79;100.00
8697;BME280;4385;48.848;8.924;2023-12-28T05:58:56;97498.84;;;16.81;100.00
8697;BME280;4385;48.848;8.924;2023-12-28T06:01:21;97492.03;;;16.83;100.00
8697;BME280;4385;48.848;8.924;2023-12-28T06:03:46;97503.00;;;16.87;100.00
8697;BME280;4385;48.848;8.924;2023-12-28T06:06:14;97511.47;;;16.89;100.00
8697;BME280;4385;48.848;8.924;2023-12-28T06:08:39;97519.91;;;16.90;100.00
8697;BME280;4385;48.848;8.924;2023-12-28T06:11:05;97523.28;;;16.92;100.00
8697;BME280;4385;48.848;8.924;2023-12-28T06:13:30;97524.13;;;16.92;100.00
8697;BME280;4385;48.848;8.924;2023-12-28T06:15:55;97528.34;;;16.93;100.00
8697;BME280;4385;48.848;8.924;2023-12-28T06:18:20;97528.34;;;16.93;100.00
8697;BME280;4385;48.848;8.924;2023-12-28T06:20:47;97522.41;;;16.93;100.00
8697;BME280;4385;48.848;8.924;2023-12-28T06:23:12;97519.06;;;16.92;100.00
8697;BME280;4385;48.848;8.924;2023-12-28T06:25:37;97524.97;;;16.93;100.00
8697;BME280;4385;48.848;8.924;2023-12-28T06:28:03;97535.13;;;16.94;100.00
8697;BME280;4385;48.848;8.924;2023-12-28T06:30:28;97542.75;;;16.94;100.00
8697;BME280;4385;48.848;8.924;2023-12-28T06:32:54;97530.00;;;16.96;100.00
8697;BME280;4385;48.848;8.924;2023-12-28T06:35:20;97530.84;;;16.98;100.00
8697;BME280;4385;48.848;8.924;2023-12-28T06:37:45;97537.59;;;16.99;100.00
8697;BME280;4385;48.848;8.924;2023-12-28T06:40:11;97544.38;;;17.00;100.00
8697;BME280;4385;48.848;8.924;2023-12-28T06:42:36;97559.63;;;17.03;100.00
8697;BME280;4385;48.848;8.924;2023-12-28T06:45:02;97554.53;;;17.03;100.00
8697;BME280;4385;48.848;8.924;2023-12-28T06:47:27;97557.91;;;17.04;100.00
8697;BME280;4385;48.848;8.924;2023-12-28T06:49:52;97547.69;;;17.05;100.00
8697;BME280;4385;48.848;8.924;2023-12-28T06:52:17;97547.66;;;17.07;100.00
8697;BME280;4385;48.848;8.924;2023-12-28T06:54:43;97552.75;;;17.08;100.00
8697;BME280;4385;48.848;8.924;2023-12-28T06:57:08;97550.22;;;17.08;100.00
8697;BME280;4385;48.848;8.924;2023-12-28T06:59:33;97551.06;;;17.09;100.00
8697;BME280;4385;48.848;8.924;2023-12-28T07:01:58;97562.13;;;17.08;100.00
8697;BME280;4385;48.848;8.924;2023-12-28T07:04:24;97568.03;;;17.08;100.00
8697;BME280;4385;48.848;8.924;2023-12-28T07:06:51;97577.41;;;17.08;100.00
8697;BME280;4385;48.848;8.924;2023-12-28T07:09:17;97574.00;;;17.07;100.00
8697;BME280;4385;48.848;8.924;2023-12-28T07:11:42;97568.06;;;17.05;100.00
8697;BME280;4385;48.848;8.924;2023-12-28T07:14:07;97577.41;;;17.05;100.00
8697;BME280;4385;48.848;8.924;2023-12-28T07:16:32;97571.47;;;17.04;100.00
8697;BME280;4385;48.848;8.924;2023-12-28T07:18:58;97574.03;;;17.04;100.00
8697;BME280;4385;48.848;8.924;2023-12-28T07:21:23;97576.56;;;17.04;100.00
8697;BME280;4385;48.848;8.924;2023-12-28T07:23:48;97576.56;;;17.04;100.00
8697;BME280;4385;48.848;8.924;2023-12-28T07:26:15;97580.81;;;17.04;100.00
8697;BME280;4385;48.848;8.924;2023-12-28T07:28:40;97587.59;;;17.05;100.00
8697;BME280;4385;48.848;8.924;2023-12-28T07:31:08;97584.19;;;17.07;100.00
8697;BME280;4385;48.848;8.924;2023-12-28T07:33:33;97587.59;;;17.08;100.00
8697;BME280;4385;48.848;8.924;2023-12-28T07:35:58;97596.88;;;17.11;100.00
8697;BME280;4385;48.848;8.924;2023-12-28T07:38:27;97597.69;;;17.13;100.00
8697;BME280;4385;48.848;8.924;2023-12-28T07:40:52;97587.50;;;17.14;100.00
8697;BME280;4385;48.848;8.924;2023-12-28T07:43:18;97586.59;;;17.17;100.00
8697;BME280;4385;48.848;8.924;2023-12-28T07:45:43;97591.63;;;17.20;100.00
8697;BME280;4385;48.848;8.924;2023-12-28T07:48:08;97600.09;;;17.22;100.00
8697;BME280;4385;48.848;8.924;2023-12-28T07:50:34;97595.00;;;17.22;100.00
8697;BME280;4385;48.848;8.924;2023-12-28T07:52:59;97598.34;;;17.24;100.00
8697;BME280;4385;48.848;8.924;2023-12-28T07:55:25;97596.63;;;17.26;100.00
8697;BME280;4385;48.848;8.924;2023-12-28T07:57:51;97594.09;;;17.26;100.00
8697;BME280;4385;48.848;8.924;2023-12-28T08:00:16;97600.88;;;17.26;100.00
8697;BME280;4385;48.848;8.924;2023-12-28T08:02:42;97607.69;;;17.25;100.00
8697;BME280;4385;48.848;8.924;2023-12-28T08:05:07;97605.16;;;17.25;100.00
8697;BME280;4385;48.848;8.924;2023-12-28T08:07:33;97606.00;;;17.24;100.00
8697;BME280;4385;48.848;8.924;2023-12-28T08:09:58;97618.72;;;17.24;100.00
8697;BME280;4385;48.848;8.924;2023-12-28T08:12:23;97620.44;;;17.25;100.00
8697;BME280;4385;48.848;8.924;2023-12-28T08:14:49;97610.28;;;17.24;100.00
8697;BME280;4385;48.848;8.924;2023-12-28T08:17:15;97618.72;;;17.24;100.00
8697;BME280;4385;48.848;8.924;2023-12-28T08:19:40;97613.63;;;17.24;100.00
8697;BME280;4385;48.848;8.924;2023-12-28T08:22:05;97623.81;;;17.24;100.00
8697;BME280;4385;48.848;8.924;2023-12-28T08:24:31;97617.91;;;17.24;100.00
8697;BME280;4385;48.848;8.924;2023-12-28T08:26:57;97622.16;;;17.23;100.00
8697;BME280;4385;48.848;8.924;2023-12-28T08:29:24;97613.63;;;17.24;100.00
8697;BME280;4385;48.848;8.924;2023-12-28T08:31:50;97620.44;;;17.25;100.00
8697;BME280;4385;48.848;8.924;2023-12-28T08:34:15;97608.53;;;17.26;100.00
8697;BME280;4385;48.848;8.924;2023-12-28T08:36:40;97621.22;;;17.27;100.00
8697;BME280;4385;48.848;8.924;2023-12-28T08:39:06;97617.00;;;17.28;100.00
8697;BME280;4385;48.848;8.924;2023-12-28T08:41:32;97622.06;;;17.29;100.00
8697;BME280;4385;48.848;8.924;2023-12-28T08:43:57;97619.50;;;17.31;100.00
8697;BME280;4385;48.848;8.924;2023-12-28T08:46:22;97629.69;;;17.31;100.00
8697;BME280;4385;48.848;8.924;2023-12-28T08:48:50;97626.22;;;17.33;100.00
8697;BME280;4385;48.848;8.924;2023-12-28T08:51:15;97620.28;;;17.35;100.00
8697;BME280;4385;48.848;8.924;2023-12-28T08:53:41;97609.28;;;17.32;100.00
8697;BME280;4385;48.848;8.924;2023-12-28T08:56:22;97610.16;;;17.31;100.00
8697;BME280;4385;48.848;8.924;2023-12-28T08:58:49;97617.78;;;17.31;100.00
8697;BME280;4385;48.848;8.924;2023-12-28T09:01:16;97622.91;;;17.30;100.00
8697;BME280;4385;48.848;8.924;2023-12-28T09:03:41;97611.88;;;17.29;100.00
8697;BME280;4385;48.848;8.924;2023-12-28T09:06:08;97600.84;;;17.29;100.00
8697;BME280;4385;48.848;8.924;2023-12-28T09:08:33;97605.09;;;17.28;100.00
8697;BME280;4385;48.848;8.924;2023-12-28T09:10:58;97605.09;;;17.28;100.00
8697;BME280;4385;48.848;8.924;2023-12-28T09:13:24;97619.50;;;17.31;100.00
8697;BME280;4385;48.848;8.924;2023-12-28T09:15:49;97627.13;;;17.31;100.00
8697;BME280;4385;48.848;8.924;2023-12-28T09:18:15;97625.44;;;17.31;100.00
8697;BME280;4385;48.848;8.924;2023-12-28T09:20:41;97621.19;;;17.30;100.00
8697;BME280;4385;48.848;8.924;2023-12-28T09:23:06;97613.53;;;17.30;100.00
8697;BME280;4385;48.848;8.924;2023-12-28T09:25:32;97622.00;;;17.32;100.00
8697;BME280;4385;48.848;8.924;2023-12-28T09:27:58;97620.31;;;17.33;100.00
8697;BME280;4385;48.848;8.924;2023-12-28T09:30:23;97633.03;;;17.35;100.00
8697;BME280;4385;48.848;8.924;2023-12-28T09:32:48;97633.81;;;17.37;100.00
8697;BME280;4385;48.848;8.924;2023-12-28T09:35:13;97641.47;;;17.37;100.00
8697;BME280;4385;48.848;8.924;2023-12-28T09:37:39;97642.28;;;17.39;100.00
8697;BME280;4385;48.848;8.924;2023-12-28T09:40:04;97650.81;;;17.38;100.00
8697;BME280;4385;48.848;8.924;2023-12-28T09:42:42;97655.91;;;17.38;100.00
8697;BME280;4385;48.848;8.924;2023-12-28T09:45:09;97657.59;;;17.39;100.00
8697;BME280;4385;48.848;8.924;2023-12-28T09:47:35;97655.91;;;17.38;100.00
8697;BME280;4385;48.848;8.924;2023-12-28T09:50:00;97654.19;;;17.37;100.00
8697;BME280;4385;48.848;8.924;2023-12-28T09:52:26;97647.44;;;17.36;100.00
8697;BME280;4385;48.848;8.924;2023-12-28T09:54:51;97661.84;;;17.37;100.00
8697;BME280;4385;48.848;8.924;2023-12-28T09:57:17;97663.53;;;17.38;100.00
8697;BME280;4385;48.848;8.924;2023-12-28T09:59:42;97660.13;;;17.39;100.00
8697;BME280;4385;48.848;8.924;2023-12-28T10:02:09;97653.34;;;17.38;100.00
8697;BME280;4385;48.848;8.924;2023-12-28T10:04:36;97655.91;;;17.38;100.00
8697;BME280;4385;48.848;8.924;2023-12-28T10:07:02;97649.09;;;17.37;100.00
8697;BME280;4385;48.848;8.924;2023-12-28T10:09:27;97652.50;;;17.37;100.00
8697;BME280;4385;48.848;8.924;2023-12-28T10:11:54;97645.72;;;17.38;100.00
8697;BME280;4385;48.848;8.924;2023-12-28T10:14:19;97658.44;;;17.39;100.00
8697;BME280;4385;48.848;8.924;2023-12-28T10:16:45;97655.00;;;17.40;100.00
8697;BME280;4385;48.848;8.924;2023-12-28T10:19:10;97646.47;;;17.43;100.00
8697;BME280;4385;48.848;8.924;2023-12-28T10:21:36;97640.53;;;17.44;100.00
8697;BME280;4385;48.848;8.924;2023-12-28T10:24:03;97649.00;;;17.44;100.00
8697;BME280;4385;48.848;8.924;2023-12-28T10:26:29;97646.44;;;17.44;100.00
8697;BME280;4385;48.848;8.924;2023-12-28T10:29:00;97646.44;;;17.44;100.00
8697;BME280;4385;48.848;8.924;2023-12-28T10:31:27;97634.53;;;17.47;100.00
8697;BME280;4385;48.848;8.924;2023-12-28T10:33:52;97642.16;;;17.48;100.00
8697;BME280;4385;48.848;8.924;2023-12-28T10:36:19;97638.75;;;17.48;100.00
8697;BME280;4385;48.848;8.924;2023-12-28T10:38:47;97636.22;;;17.48;100.00
8697;BME280;4385;48.848;8.924;2023-12-28T10:41:13;97624.31;;;17.48;100.00
8697;BME280;4385;48.848;8.924;2023-12-28T10:44:01;97616.69;;;17.48;100.00
8697;BME280;4385;48.848;8.924;2023-12-28T10:46:30;97615.81;;;17.48;100.00
8697;BME280;4385;48.848;8.924;2023-12-28T10:48:59;97622.69;;;17.44;100.00
8697;BME280;4385;48.848;8.924;2023-12-28T10:51:25;97627.78;;;17.44;100.00
8697;BME280;4385;48.848;8.924;2023-12-28T10:56:36;97614.22;;;17.42;100.00
8697;BME280;4385;48.848;8.924;2023-12-28T10:59:19;97618.44;;;17.43;100.00
8697;BME280;4385;48.848;8.924;2023-12-28T11:01:47;97619.25;;;17.47;100.00
8697;BME280;4385;48.848;8.924;2023-12-28T11:06:42;97603.13;;;17.46;100.00
8697;BME280;4385;48.848;8.924;2023-12-28T11:09:09;97611.59;;;17.48;100.00
8697;BME280;4385;48.848;8.924;2023-12-28T11:11:35;97610.69;;;17.49;100.00
8697;BME280;4385;48.848;8.924;2023-12-28T11:14:01;97612.44;;;17.49;100.00
8697;BME280;4385;48.848;8.924;2023-12-28T11:16:28;97608.19;;;17.48;100.00
8697;BME280;4385;48.848;8.924;2023-12-28T11:18:55;97615.81;;;17.49;100.00
8697;BME280;4385;48.848;8.924;2023-12-28T11:21:22;97615.81;;;17.49;100.00
8697;BME280;4385;48.848;8.924;2023-12-28T11:23:48;97607.34;;;17.49;100.00
8697;BME280;4385;48.848;8.924;2023-12-28T11:26:18;97605.63;;;17.48;100.00
8697;BME280;4385;48.848;8.924;2023-12-28T11:28:44;97602.22;;;17.50;100.00
8697;BME280;4385;48.848;8.924;2023-12-28T11:31:10;97602.22;;;17.50;100.00
8697;BME280;4385;48.848;8.924;2023-12-28T11:33:43;97592.84;;;17.51;100.00
8697;BME280;4385;48.848;8.924;2023-12-28T11:36:09;97582.69;;;17.49;100.00
8697;BME280;4385;48.848;8.924;2023-12-28T11:38:35;97592.84;;;17.51;100.00
8697;BME280;4385;48.848;8.924;2023-12-28T11:41:04;97586.91;;;17.52;100.00
8697;BME280;4385;48.848;8.924;2023-12-28T11:43:29;97587.72;;;17.52;100.00
8697;BME280;4385;48.848;8.924;2023-12-28T11:45:58;97586.88;;;17.53;100.00
8697;BME280;4385;48.848;8.924;2023-12-28T11:48:25;97582.59;;;17.54;100.00
8697;BME280;4385;48.848;8.924;2023-12-28T11:50:56;97589.38;;;17.56;100.00
8697;BME280;4385;48.848;8.924;2023-12-28T11:53:22;97578.34;;;17.56;100.00
8697;BME280;4385;48.848;8.924;2023-12-28T11:55:48;97578.34;;;17.56;100.00
8697;BME280;4385;48.848;8.924;2023-12-28T11:58:16;97583.41;;;17.57;100.00
8697;BME280;4385;48.848;8.924;2023-12-28T12:00:41;97582.53;;;17.58;100.00
8697;BME280;4385;48.848;8.924;2023-12-28T12:03:09;97580.84;;;17.57;100.00
8697;BME280;4385;48.848;8.924;2023-12-28T12:05:35;97573.22;;;17.56;100.00
8697;BME280;4385;48.848;8.924;2023-12-28T12:08:01;97583.44;;;17.56;100.00
8697;BME280;4385;48.848;8.924;2023-12-28T12:10:26;97574.94;;;17.55;100.00
8697;BME280;4385;48.848;8.924;2023-12-28T12:12:52;97575.78;;;17.56;100.00
8697;BME280;4385;48.848;8.924;2023-12-28T12:15:18;97577.47;;;17.55;100.00
8697;BME280;4385;48.848;8.924;2023-12-28T12:17:43;97570.69;;;17.56;100.00
8697;BME280;4385;48.848;8.924;2023-12-28T12:20:09;97571.56;;;17.55;100.00
8697;BME280;4385;48.848;8.924;2023-12-28T12:22:35;97574.09;;;17.56;100.00
8697;BME280;4385;48.848;8.924;2023-12-28T12:25:02;97573.22;;;17.57;100.00
8697;BME280;4385;48.848;8.924;2023-12-28T12:27:31;97565.56;;;17.57;100.00
8697;BME280;4385;48.848;8.924;2023-12-28T12:29:57;97569.78;;;17.58;100.00
8697;BME280;4385;48.848;8.924;2023-12-28T12:32:22;97564.66;;;17.60;100.00
8697;BME280;4385;48.848;8.924;2023-12-28T12:34:49;97561.28;;;17.61;100.00
8697;BME280;4385;48.848;8.924;2023-12-28T12:37:14;97551.06;;;17.61;100.00
8697;BME280;4385;48.848;8.924;2023-12-28T12:39:40;97554.38;;;17.65;100.00
8697;BME280;4385;48.848;8.924;2023-12-28T12:42:05;97556.94;;;17.65;100.00
8697;BME280;4385;48.848;8.924;2023-12-28T12:44:31;97556.16;;;17.63;100.00
8697;BME280;4385;48.848;8.924;2023-12-28T12:46:58;97545.03;;;17.65;100.00
8697;BME280;4385;48.848;8.924;2023-12-28T12:49:26;97545.00;;;17.67;100.00
8697;BME280;4385;48.848;8.924;2023-12-28T12:51:52;97556.94;;;17.65;100.00
8697;BME280;4385;48.848;8.924;2023-12-28T12:54:17;97546.78;;;17.63;100.00
8697;BME280;4385;48.848;8.924;2023-12-28T12:56:45;97549.31;;;17.63;100.00
8697;BME280;4385;48.848;8.924;2023-12-28T12:59:11;97560.34;;;17.64;100.00
8697;BME280;4385;48.848;8.924;2023-12-28T13:01:42;97557.00;;;17.62;100.00
8697;BME280;4385;48.848;8.924;2023-12-28T13:04:07;97556.16;;;17.61;100.00
8697;BME280;4385;48.848;8.924;2023-12-28T13:06:32;97556.16;;;17.61;100.00
8697;BME280;4385;48.848;8.924;2023-12-28T13:08:57;97557.00;;;17.62;100.00
8697;BME280;4385;48.848;8.924;2023-12-28T13:11:23;97557.00;;;17.62;100.00